createdAt,value
2023-03-23T15:59:14.422Z,10.75
2023-03-23T16:01:43.430Z,9.65
2023-03-23T16:04:15.631Z,9.63
2023-03-23T16:06:44.538Z,7.57
2023-03-23T16:09:16.892Z,15.73
2023-03-23T16:11:43.996Z,7.75
2023-03-23T16:14:11.715Z,8.73
2023-03-23T16:16:50.804Z,7.25
2023-03-23T16:19:20.541Z,7.30
2023-03-23T16:21:47.653Z,7.75
2023-03-23T16:24:14.893Z,6.93
2023-03-23T16:26:41.848Z,6.55
2023-03-23T16:29:28.280Z,8.20
2023-03-23T16:32:01.632Z,10.10
2023-03-23T16:34:33.117Z,10.38
2023-03-23T16:37:00.344Z,9.23
2023-03-23T16:39:27.847Z,8.75
2023-03-23T16:41:54.967Z,7.78
2023-03-23T16:44:22.324Z,8.15
2023-03-23T16:46:49.263Z,8.18
2023-03-23T16:49:16.772Z,6.85
2023-03-23T16:51:43.705Z,8.48
2023-03-23T16:54:11.016Z,6.43
2023-03-23T16:56:38.579Z,9.20
2023-03-23T16:59:06.096Z,10.60
2023-03-23T17:01:33.147Z,8.43
2023-03-23T17:04:00.503Z,8.93
2023-03-23T17:06:27.640Z,8.95
2023-03-23T17:08:55.076Z,8.73
2023-03-23T17:11:22.111Z,6.55
2023-03-23T17:13:49.801Z,8.18
2023-03-23T17:16:16.736Z,6.53
2023-03-23T17:18:44.082Z,7.72
2023-03-23T17:21:11.206Z,11.43
2023-03-23T17:23:38.377Z,10.52
2023-03-23T17:26:05.948Z,7.55
2023-03-23T17:28:33.193Z,7.18
2023-03-23T17:31:00.492Z,10.88
2023-03-23T17:33:27.912Z,6.50
2023-03-23T17:35:55.167Z,9.73
2023-03-23T17:38:22.530Z,8.18
2023-03-23T17:40:57.188Z,11.45
2023-03-23T17:43:24.348Z,7.63
2023-03-23T17:45:51.298Z,8.05
2023-03-23T17:48:18.578Z,7.60
2023-03-23T17:50:49.547Z,11.23
2023-03-23T17:53:18.546Z,7.35
2023-03-23T17:55:46.414Z,9.88
2023-03-23T17:58:13.695Z,8.90
2023-03-23T18:00:40.645Z,9.32
2023-03-23T18:03:07.857Z,10.13
2023-03-23T18:05:35.652Z,10.25
2023-03-23T18:08:02.909Z,10.75
2023-03-23T18:10:29.966Z,8.77
2023-03-23T18:12:57.287Z,11.00
2023-03-23T18:15:28.263Z,8.70
2023-03-23T18:17:57.374Z,11.38
2023-03-23T18:20:24.421Z,14.02
2023-03-23T18:22:51.803Z,14.02
2023-03-23T18:25:19.311Z,10.98
2023-03-23T18:27:47.023Z,10.98
2023-03-23T18:30:14.185Z,10.60
2023-03-23T18:32:42.654Z,13.57
2023-03-23T18:35:11.255Z,8.70
2023-03-23T18:37:39.665Z,8.55
2023-03-23T18:40:10.914Z,7.90
2023-03-23T18:45:07.621Z,15.43
2023-03-23T18:47:37.450Z,15.65
2023-03-23T18:50:09.377Z,12.23
2023-03-23T18:52:37.032Z,13.88
2023-03-23T18:55:04.433Z,13.90
2023-03-23T18:57:31.966Z,12.18
2023-03-23T18:59:59.010Z,10.75
2023-03-23T19:02:26.685Z,10.18
2023-03-23T19:04:53.930Z,10.93
2023-03-23T19:07:21.585Z,8.30
2023-03-23T19:09:48.557Z,6.85
2023-03-23T19:12:16.086Z,8.85
2023-03-23T19:14:43.926Z,9.07
2023-03-23T19:17:11.317Z,11.13
2023-03-23T19:19:38.828Z,7.45
2023-03-23T19:22:08.784Z,9.15
2023-03-23T19:24:36.497Z,5.82
2023-03-23T19:27:03.952Z,7.18
2023-03-23T19:29:31.323Z,5.95
2023-03-23T19:31:58.774Z,7.95
2023-03-23T19:34:28.151Z,5.38
2023-03-23T19:37:04.775Z,7.28
2023-03-23T19:39:34.166Z,7.72
2023-03-23T19:42:01.817Z,10.65
2023-03-23T19:44:29.150Z,8.70
2023-03-23T19:46:56.758Z,5.50
2023-03-23T19:49:25.098Z,7.70
2023-03-23T19:52:06.370Z,5.15
2023-03-23T19:54:38.614Z,5.65
2023-03-23T19:57:06.645Z,5.22
2023-03-23T19:59:33.988Z,4.68
2023-03-23T20:02:01.663Z,3.22
2023-03-23T20:04:29.316Z,4.50
2023-03-23T20:06:57.177Z,7.05
2023-03-23T20:09:25.301Z,5.30
2023-03-23T20:11:53.686Z,4.22
2023-03-23T20:14:21.004Z,3.95
2023-03-23T20:16:48.606Z,5.05
2023-03-23T20:19:15.574Z,3.42
2023-03-23T20:21:42.913Z,3.88
2023-03-23T20:24:09.887Z,5.32
2023-03-23T20:26:41.139Z,2.22
2023-03-23T20:29:08.177Z,3.33
2023-03-23T20:31:41.560Z,3.17
2023-03-23T20:34:11.561Z,5.03
2023-03-23T20:36:46.090Z,3.20
2023-03-23T20:39:19.058Z,5.70
2023-03-23T20:41:47.658Z,5.70
2023-03-23T20:44:15.939Z,3.15
2023-03-23T20:46:47.917Z,4.05
2023-03-23T20:49:16.271Z,5.57
2023-03-23T20:51:44.825Z,4.70
2023-03-23T20:54:15.635Z,3.90
2023-03-23T20:56:44.235Z,4.00
2023-03-23T20:59:12.685Z,5.70
2023-03-23T21:01:40.478Z,5.18
2023-03-23T21:04:15.139Z,5.30
2023-03-23T21:06:44.390Z,4.95
2023-03-23T21:09:12.272Z,6.03
2023-03-23T21:11:39.909Z,6.32
2023-03-23T21:14:06.909Z,7.53
2023-03-23T21:16:34.875Z,5.43
2023-03-23T21:19:04.279Z,4.95
2023-03-23T21:21:31.629Z,5.05
2023-03-23T21:23:58.876Z,5.82
2023-03-23T21:26:29.068Z,6.50
2023-03-23T21:28:59.981Z,10.52
2023-03-23T21:31:30.662Z,5.13
2023-03-23T21:33:58.861Z,7.30
2023-03-23T21:36:27.537Z,7.50
2023-03-23T21:38:55.478Z,7.63
2023-03-23T21:41:23.262Z,8.15
2023-03-23T21:43:50.441Z,7.97
2023-03-23T21:46:18.586Z,7.10
2023-03-23T21:48:51.001Z,7.25
2023-03-23T21:51:28.197Z,6.57
2023-03-23T21:53:56.277Z,5.65
2023-03-23T21:56:27.325Z,6.75
2023-03-23T21:58:56.635Z,8.30
2023-03-23T22:01:24.774Z,9.48
2023-03-23T22:03:51.990Z,7.32
2023-03-23T22:06:25.230Z,10.32
2023-03-23T22:08:53.454Z,7.10
2023-03-23T22:11:23.788Z,10.35
2023-03-23T22:13:53.312Z,8.23
2023-03-23T22:16:21.997Z,6.30
2023-03-23T22:18:51.282Z,10.23
2023-03-23T22:21:20.118Z,9.48
2023-03-23T22:23:47.205Z,7.78
2023-03-23T22:26:16.574Z,6.93
2023-03-23T22:28:46.513Z,8.90
2023-03-23T22:31:18.765Z,8.18
2023-03-23T22:33:47.769Z,11.45
2023-03-23T22:36:17.213Z,9.05
2023-03-23T22:38:46.314Z,13.77
2023-03-23T22:41:18.693Z,11.15
2023-03-23T22:43:46.129Z,11.25
2023-03-23T22:46:14.296Z,14.93
2023-03-23T22:48:42.017Z,12.93
2023-03-23T22:51:09.839Z,11.57
2023-03-23T22:53:36.925Z,10.15
2023-03-23T22:56:04.733Z,12.02
2023-03-23T22:58:31.945Z,10.05
2023-03-23T23:01:07.166Z,10.35
2023-03-23T23:03:35.385Z,9.85
2023-03-23T23:06:03.163Z,10.50
2023-03-23T23:08:32.050Z,10.45
2023-03-23T23:11:01.287Z,8.68
2023-03-23T23:13:29.821Z,10.02
2023-03-23T23:15:59.793Z,10.65
2023-03-23T23:18:27.754Z,7.03
2023-03-23T23:20:57.058Z,7.63
2023-03-23T23:23:24.905Z,7.35
2023-03-23T23:25:52.745Z,6.82
2023-03-23T23:28:20.767Z,6.50
2023-03-23T23:30:48.776Z,7.03
2023-03-23T23:33:16.095Z,6.22
2023-03-23T23:35:43.276Z,6.75
2023-03-23T23:38:12.519Z,6.28
2023-03-23T23:40:43.021Z,7.55
2023-03-23T23:43:15.411Z,6.75
2023-03-23T23:45:43.661Z,7.50
2023-03-23T23:48:11.236Z,7.63
2023-03-23T23:50:38.791Z,11.07
2023-03-23T23:53:05.827Z,9.13
2023-03-23T23:55:33.124Z,9.90
2023-03-23T23:58:00.377Z,8.52
